Time;durP1;ratioP1;P1;durP2;ratioP2;P2;SDS_P1;SDS_P2;PMS_P1;PMS_P2;Temp;Humidity;BMP_temperature;BMP_pressure;BME280_temperature;BME280_humidity;BME280_pressure;Samples;Min_cycle;Max_cycle;Signal;HPM_P1;HPM_P2
2024/01/23 00:01:20;;;;;;;11.65;3.38;;;;;;;7.06;100.00;101419.34;5033446;28;20029;-77
2024/01/23 00:03:46;;;;;;;13.15;3.85;;;;;;;7.13;100.00;101426.44;5033509;28;20048;-76
2024/01/23 00:06:11;;;;;;;6.45;3.00;;;;;;;7.17;100.00;101434.06;5051661;28;20033;-77
2024/01/23 00:08:37;;;;;;;11.90;4.13;;;;;;;7.07;100.00;101443.09;5033383;28;20033;-76
2024/01/23 00:11:03;;;;;;;8.85;3.50;;;;;;;7.06;100.00;101460.06;5051131;28;20429;-76
2024/01/23 00:13:29;;;;;;;8.85;2.60;;;;;;;6.99;100.00;101463.59;5033453;28;20421;-77
2024/01/23 00:15:54;;;;;;;14.90;3.40;;;;;;;7.00;100.00;101468.75;5033219;28;20044;-78
2024/01/23 00:18:19;;;;;;;11.70;2.80;;;;;;;6.96;100.00;101448.84;5051174;28;20039;-75
2024/01/23 00:20:46;;;;;;;11.90;3.63;;;;;;;7.06;100.00;101475.19;5033341;28;20033;-77
2024/01/23 00:23:12;;;;;;;8.57;3.53;;;;;;;7.11;100.00;101470.16;5051226;28;20483;-76
2024/01/23 00:25:37;;;;;;;8.82;2.85;;;;;;;7.02;100.00;101481.88;5051136;28;20052;-78
2024/01/23 00:28:03;;;;;;;12.23;3.30;;;;;;;7.07;100.00;101482.16;5051232;28;20033;-77
2024/01/23 00:30:29;;;;;;;15.57;3.50;;;;;;;6.95;100.00;101497.69;5051145;28;20474;-77
2024/01/23 00:32:54;;;;;;;13.48;4.00;;;;;;;6.82;100.00;101498.25;5051071;28;20029;-77
2024/01/23 00:35:19;;;;;;;10.50;3.75;;;;;;;6.84;100.00;101498.06;5050796;28;20029;-78
2024/01/23 00:37:45;;;;;;;12.13;2.88;;;;;;;6.80;100.00;101489.63;5016617;28;20064;-78
2024/01/23 00:40:11;;;;;;;10.68;3.08;;;;;;;6.91;100.00;101491.03;5032934;28;20430;-77
2024/01/23 00:42:37;;;;;;;15.20;3.55;;;;;;;6.99;100.00;101491.03;5033210;28;20037;-77
2024/01/23 00:45:03;;;;;;;11.75;3.58;;;;;;;7.03;100.00;101518.09;5050821;28;20520;-77
2024/01/23 00:47:29;;;;;;;10.38;3.78;;;;;;;6.97;100.00;101514.31;5050685;28;20056;-77
2024/01/23 00:49:54;;;;;;;8.40;3.15;;;;;;;6.97;100.00;101518.78;5050743;28;20060;-76
2024/01/23 00:52:19;;;;;;;14.65;4.82;;;;;;;7.00;100.00;101490.03;5032844;28;20045;-75
2024/01/23 00:54:45;;;;;;;12.68;3.13;;;;;;;6.96;100.00;101514.47;5033028;28;20028;-74
2024/01/23 00:57:10;;;;;;;13.77;3.60;;;;;;;6.88;100.00;101514.50;5050733;28;20033;-75
2024/01/23 00:59:35;;;;;;;9.55;3.97;;;;;;;6.84;100.00;101529.97;5032854;28;20037;-76
2024/01/23 01:02:02;;;;;;;14.52;3.40;;;;;;;6.93;100.00;101539.53;5050743;28;20025;-76
2024/01/23 01:04:27;;;;;;;8.52;2.83;;;;;;;6.90;100.00;101536.41;5032628;28;20474;-76
2024/01/23 01:06:52;;;;;;;13.93;4.15;;;;;;;6.76;100.00;101554.75;5050320;28;20029;-77
2024/01/23 01:09:18;;;;;;;15.50;4.65;;;;;;;6.63;100.00;101538.50;5050800;28;20028;-77
2024/01/23 01:11:43;;;;;;;13.88;3.65;;;;;;;6.70;100.00;101536.84;5053867;28;20074;-77
2024/01/23 01:14:08;;;;;;;16.40;3.67;;;;;;;6.73;100.00;101551.59;5035935;28;20504;-76
2024/01/23 01:16:34;;;;;;;10.30;2.83;;;;;;;6.63;100.00;101558.94;5035929;28;20450;-76
2024/01/23 01:18:59;;;;;;;8.80;3.92;;;;;;;6.58;100.00;101558.63;5036095;28;20382;-77
2024/01/23 01:21:25;;;;;;;13.07;4.13;;;;;;;6.50;100.00;101570.94;5053983;28;20036;-76
2024/01/23 01:23:50;;;;;;;20.48;4.63;;;;;;;6.42;100.00;101564.81;5035968;28;20037;-78
2024/01/23 01:26:15;;;;;;;16.73;4.03;;;;;;;6.30;100.00;101587.38;5035707;28;20029;-76
2024/01/23 01:28:41;;;;;;;12.23;3.30;;;;;;;6.20;100.00;101576.94;5053652;28;20025;-77
2024/01/23 01:31:07;;;;;;;11.55;2.88;;;;;;;6.23;100.00;101587.22;5053516;28;20087;-79
2024/01/23 01:33:32;;;;;;;14.63;4.00;;;;;;;6.31;100.00;101602.31;5053561;28;20033;-78
2024/01/23 01:35:57;;;;;;;14.40;3.17;;;;;;;6.12;100.00;101598.19;5035551;28;20477;-78
2024/01/23 01:38:23;;;;;;;14.50;3.67;;;;;;;6.23;100.00;101608.47;5053506;28;20389;-76
2024/01/23 01:40:49;;;;;;;11.00;3.20;;;;;;;6.07;100.00;101606.66;5053413;28;20032;-79
2024/01/23 01:43:34;;;;;;;15.80;3.60;;;;;;;6.20;100.00;101624.75;5035389;28;20470;-78
2024/01/23 01:46:23;;;;;;;16.20;3.90;;;;;;;6.10;100.00;101629.41;5035073;28;20397;-76
2024/01/23 01:48:49;;;;;;;13.93;3.55;;;;;;;6.13;100.00;101626.41;5019176;28;20044;-77
2024/01/23 01:51:17;;;;;;;17.58;4.45;;;;;;;6.16;100.00;101623.41;5053320;28;20032;-75
2024/01/23 01:53:43;;;;;;;8.93;3.03;;;;;;;6.04;100.00;101617.59;5053242;28;20078;-77
2024/01/23 01:56:09;;;;;;;16.83;3.75;;;;;;;5.98;100.00;101623.56;5053076;28;20039;-77
2024/01/23 01:58:36;;;;;;;16.75;3.20;;;;;;;6.02;100.00;101640.00;5053193;28;20041;-76
2024/01/23 02:01:01;;;;;;;17.15;3.60;;;;;;;5.99;100.00;101654.41;5053031;28;20477;-77
2024/01/23 02:03:27;;;;;;;13.90;3.53;;;;;;;6.08;100.00;101653.47;5053092;28;20032;-77
2024/01/23 02:05:53;;;;;;;13.57;2.75;;;;;;;5.95;100.00;101655.75;5035054;28;20037;-76
2024/01/23 02:08:19;;;;;;;10.05;3.13;;;;;;;6.01;100.00;101662.22;5035271;28;20082;-77
2024/01/23 02:10:45;;;;;;;12.07;3.17;;;;;;;5.86;100.00;101676.13;5052919;28;20028;-76
2024/01/23 02:13:10;;;;;;;19.63;3.80;;;;;;;5.79;100.00;101675.09;5053044;28;20036;-77
2024/01/23 02:15:35;;;;;;;11.25;3.08;;;;;;;5.82;100.00;101673.94;5052958;28;20029;-76
2024/01/23 02:18:01;;;;;;;14.70;3.75;;;;;;;5.87;100.00;101680.44;5035024;28;20055;-77
2024/01/23 02:20:27;;;;;;;9.43;4.78;;;;;;;5.97;100.00;101666.19;5052775;28;20025;-77
2024/01/23 02:22:55;;;;;;;12.88;3.58;;;;;;;5.87;100.00;101655.72;5052222;28;20433;-76
2024/01/23 02:25:20;;;;;;;19.25;5.05;;;;;;;5.89;100.00;101685.56;5034794;28;20024;-76
2024/01/23 02:27:46;;;;;;;13.52;3.60;;;;;;;5.84;100.00;101682.56;5052666;28;20539;-78
2024/01/23 02:30:12;;;;;;;10.30;3.65;;;;;;;5.87;100.00;101700.81;5034742;28;20029;-76
2024/01/23 02:32:41;;;;;;;15.23;4.50;;;;;;;5.76;100.00;101690.50;5034790;28;20055;-77
2024/01/23 02:35:08;;;;;;;10.18;3.08;;;;;;;5.78;100.00;101707.94;5052480;28;20040;-78
2024/01/23 02:37:33;;;;;;;11.90;3.78;;;;;;;5.65;100.00;101691.63;5035139;28;20496;-79
2024/01/23 02:39:59;;;;;;;14.82;4.57;;;;;;;5.62;100.00;101720.31;5052621;28;20050;-77
2024/01/23 02:42:24;;;;;;;12.95;3.67;;;;;;;5.65;100.00;101718.16;5034698;28;20033;-78
2024/01/23 02:44:49;;;;;;;11.77;3.58;;;;;;;5.65;100.00;101725.28;5034549;28;20199;-76
2024/01/23 02:47:15;;;;;;;11.25;3.35;;;;;;;5.65;100.00;101726.13;5052341;28;20079;-76
2024/01/23 02:49:41;;;;;;;13.18;3.70;;;;;;;5.71;100.00;101738.75;5034562;28;20445;-77
2024/01/23 02:52:07;;;;;;;12.85;3.10;;;;;;;5.67;100.00;101750.66;5034215;28;20033;-78
2024/01/23 02:54:33;;;;;;;15.63;4.53;;;;;;;5.72;100.00;101736.91;5052444;28;20102;-77
2024/01/23 02:56:58;;;;;;;13.10;3.05;;;;;;;5.70;100.00;101747.69;5052181;28;20037;-77
2024/01/23 02:59:24;;;;;;;13.30;3.72;;;;;;;5.58;100.00;101751.63;5034353;28;20076;-76
2024/01/23 03:01:49;;;;;;;11.85;2.92;;;;;;;5.57;100.00;101763.25;5052246;28;20381;-76
2024/01/23 03:04:14;;;;;;;12.30;3.85;;;;;;;5.58;100.00;101775.50;5052233;28;20067;-77
2024/01/23 03:06:40;;;;;;;15.30;3.35;;;;;;;5.54;100.00;101776.81;5034165;28;20033;-76
2024/01/23 03:09:06;;;;;;;11.45;3.15;;;;;;;5.61;100.00;101769.88;5052020;28;20021;-76
2024/01/23 03:11:32;;;;;;;13.02;3.40;;;;;;;5.71;100.00;101793.63;5052132;28;20035;-76
2024/01/23 03:13:57;;;;;;;15.55;3.50;;;;;;;5.78;100.00;101792.00;5052011;28;20029;-78
2024/01/23 03:16:22;;;;;;;20.48;4.35;;;;;;;5.80;100.00;101798.84;5052186;28;20403;-77
2024/01/23 03:18:48;;;;;;;13.98;4.22;;;;;;;5.88;100.00;101784.75;5052071;28;20033;-77
2024/01/23 03:21:14;;;;;;;18.75;3.78;;;;;;;5.86;100.00;101789.41;5052290;28;20099;-76
2024/01/23 03:23:39;;;;;;;17.88;3.35;;;;;;;5.85;100.00;101799.19;5051995;28;20032;-76
2024/01/23 03:26:04;;;;;;;13.48;3.85;;;;;;;5.75;100.00;101803.78;5033922;28;20037;-77
2024/01/23 03:28:30;;;;;;;14.52;3.40;;;;;;;5.73;100.00;101803.09;5034079;28;20021;-78
2024/01/23 03:30:55;;;;;;;12.07;3.40;;;;;;;5.74;100.00;101803.94;5051763;28;20408;-77
2024/01/23 03:33:21;;;;;;;18.95;4.72;;;;;;;5.66;100.00;101794.13;5033813;28;20532;-77
2024/01/23 03:35:46;;;;;;;12.85;3.50;;;;;;;5.54;100.00;101798.88;5051627;28;20111;-77
2024/01/23 03:38:13;;;;;;;15.27;3.55;;;;;;;5.56;100.00;101802.19;5051651;28;20021;-77
2024/01/23 03:40:39;;;;;;;13.68;4.15;;;;;;;5.41;100.00;101806.41;5033759;28;20036;-77
2024/01/23 03:43:04;;;;;;;22.23;3.83;;;;;;;5.46;100.00;101811.22;5033808;28;20035;-77
2024/01/23 03:45:29;;;;;;;10.85;3.20;;;;;;;5.44;100.00;101823.81;5051631;28;20064;-76
2024/01/23 03:47:55;;;;;;;17.13;3.83;;;;;;;5.36;100.00;101837.03;5051490;28;20498;-76
2024/01/23 03:50:20;;;;;;;14.48;3.88;;;;;;;5.18;100.00;101837.88;5051390;28;20097;-77
2024/01/23 03:52:46;;;;;;;18.80;5.05;;;;;;;5.17;100.00;101856.59;5033563;28;20366;-76
2024/01/23 03:55:11;;;;;;;16.08;3.67;;;;;;;5.08;100.00;101855.72;5051486;28;20382;-77
2024/01/23 03:57:37;;;;;;;19.52;3.85;;;;;;;5.06;100.00;101863.00;5051469;28;20108;-76
2024/01/23 04:00:04;;;;;;;21.08;4.20;;;;;;;5.01;100.00;101875.88;5051479;28;20056;-76
2024/01/23 04:02:31;;;;;;;15.60;3.75;;;;;;;5.00;100.00;101870.72;5051261;28;20091;-76
2024/01/23 04:04:57;;;;;;;17.15;4.53;;;;;;;4.91;100.00;101867.97;5033342;28;20166;-76
2024/01/23 04:07:22;;;;;;;15.88;3.83;;;;;;;5.03;100.00;101858.00;5051421;28;20115;-76
2024/01/23 04:09:48;;;;;;;14.38;4.20;;;;;;;4.93;100.00;101875.81;5033433;28;20063;-76
2024/01/23 04:12:13;;;;;;;16.38;4.05;;;;;;;4.97;100.00;101874.50;5051255;28;20082;-77
2024/01/23 04:14:40;;;;;;;13.52;3.05;;;;;;;4.97;100.00;101858.63;5051049;28;20025;-77
2024/01/23 04:17:06;;;;;;;13.93;4.30;;;;;;;5.04;100.00;101864.97;5033161;28;20033;-77
2024/01/23 04:19:31;;;;;;;16.05;3.45;;;;;;;4.97;100.00;101861.25;5033651;28;20436;-77
2024/01/23 04:21:57;;;;;;;10.77;3.95;;;;;;;4.94;100.00;101869.53;5051285;28;20021;-77
2024/01/23 04:24:22;;;;;;;9.98;3.13;;;;;;;4.97;100.00;101875.34;5033073;28;20025;-78
2024/01/23 04:26:48;;;;;;;17.30;4.00;;;;;;;4.96;100.00;101878.97;5050916;28;20033;-78
2024/01/23 04:29:13;;;;;;;19.73;3.58;;;;;;;4.93;100.00;101878.47;5050835;28;20041;-77
2024/01/23 04:31:39;;;;;;;17.60;4.05;;;;;;;4.82;100.00;101886.59;5051013;28;20104;-77
2024/01/23 04:34:04;;;;;;;9.05;3.15;;;;;;;4.79;100.00;101897.50;5050789;28;20033;-77
2024/01/23 04:36:30;;;;;;;13.60;3.97;;;;;;;4.85;100.00;101907.50;5050673;28;20351;-77
2024/01/23 04:38:55;;;;;;;16.95;4.40;;;;;;;4.84;100.00;101921.75;5032864;28;20025;-76
2024/01/23 04:41:22;;;;;;;17.40;3.80;;;;;;;4.76;100.00;101921.66;5050857;28;20048;-76
2024/01/23 04:43:48;;;;;;;17.35;3.67;;;;;;;4.81;100.00;101922.03;5050699;28;20032;-77
2024/01/23 04:46:13;;;;;;;12.10;3.40;;;;;;;4.83;100.00;101941.28;5053868;28;20033;-77
2024/01/23 04:48:39;;;;;;;17.30;3.55;;;;;;;4.78;100.00;101936.41;5054221;28;20064;-76
2024/01/23 04:51:04;;;;;;;17.15;3.55;;;;;;;4.75;100.00;101944.66;5054217;28;20040;-77
2024/01/23 04:53:32;;;;;;;12.93;4.25;;;;;;;4.74;100.00;101953.59;5054481;28;20365;-76
2024/01/23 04:55:58;;;;;;;21.25;5.15;;;;;;;4.79;100.00;101955.81;5054099;28;20052;-77
2024/01/23 04:58:23;;;;;;;13.40;3.90;;;;;;;4.74;100.00;101966.00;5054143;28;20033;-77
2024/01/23 05:00:49;;;;;;;11.40;3.40;;;;;;;4.74;100.00;101953.59;5036091;28;20118;-76
2024/01/23 05:03:14;;;;;;;11.68;2.97;;;;;;;4.62;100.00;101965.38;5036015;28;20035;-76
2024/01/23 05:05:39;;;;;;;16.42;3.90;;;;;;;4.54;100.00;101973.22;5036048;28;20028;-75
2024/01/23 05:08:05;;;;;;;21.75;4.10;;;;;;;4.56;100.00;101973.91;5053879;28;20082;-75
2024/01/23 05:10:32;;;;;;;12.77;3.15;;;;;;;4.53;100.00;101976.84;5053880;28;20036;-75
2024/01/23 05:12:57;;;;;;;16.13;3.63;;;;;;;4.55;100.00;101991.59;5053932;28;20064;-76
2024/01/23 05:15:23;;;;;;;15.32;3.97;;;;;;;4.53;100.00;102001.50;5053677;28;20060;-75
2024/01/23 05:17:48;;;;;;;17.67;4.40;;;;;;;4.52;100.00;101999.84;5035808;28;20120;-75
2024/01/23 05:20:14;;;;;;;14.80;3.55;;;;;;;4.47;100.00;102009.22;5053624;28;20071;-77
2024/01/23 05:22:40;;;;;;;13.57;3.05;;;;;;;4.42;100.00;102004.34;5053684;28;20036;-77
2024/01/23 05:25:06;;;;;;;18.65;3.60;;;;;;;4.44;100.00;102009.50;5035857;28;20405;-78
2024/01/23 05:27:32;;;;;;;17.42;3.40;;;;;;;4.43;100.00;102019.25;5035778;28;20064;-76
2024/01/23 05:29:57;;;;;;;13.60;4.53;;;;;;;4.41;100.00;102018.56;5053660;28;20059;-77
2024/01/23 05:32:22;;;;;;;16.42;3.78;;;;;;;4.44;100.00;102014.81;5053436;28;20027;-77
2024/01/23 05:34:48;;;;;;;17.42;4.28;;;;;;;4.43;100.00;102023.72;5053429;28;20538;-76
2024/01/23 05:37:13;;;;;;;13.25;3.13;;;;;;;4.38;100.00;102031.28;5053540;28;20056;-77
2024/01/23 05:39:39;;;;;;;15.98;4.15;;;;;;;4.33;100.00;102034.31;5035594;28;20111;-76
2024/01/23 05:42:05;;;;;;;14.57;4.28;;;;;;;4.29;100.00;102046.19;5053897;28;20108;-76
2024/01/23 05:44:34;;;;;;;17.67;4.55;;;;;;;4.21;100.00;102054.03;5053283;28;20419;-76
2024/01/23 05:47:00;;;;;;;14.15;3.47;;;;;;;4.15;100.00;102058.06;5053803;28;20355;-77
2024/01/23 05:49:25;;;;;;;15.75;3.65;;;;;;;4.04;100.00;102066.97;5053444;28;20155;-76
2024/01/23 05:51:50;;;;;;;23.95;5.50;;;;;;;3.98;100.00;102072.84;5035356;28;20040;-76
2024/01/23 05:54:16;;;;;;;17.52;3.75;;;;;;;4.01;100.00;102083.16;5053377;28;20033;-76
2024/01/23 05:56:41;;;;;;;12.35;3.25;;;;;;;3.99;100.00;102079.81;5052034;28;20548;-76
2024/01/23 05:59:07;;;;;;;14.45;3.63;;;;;;;4.06;100.00;102084.56;5053273;28;20100;-75
2024/01/23 06:01:33;;;;;;;21.27;4.88;;;;;;;4.10;100.00;102078.84;5035273;28;20444;-77
2024/01/23 06:03:59;;;;;;;12.40;4.20;;;;;;;4.08;100.00;102087.91;5035332;28;20029;-76
2024/01/23 06:06:24;;;;;;;13.38;3.90;;;;;;;4.16;100.00;102096.81;5035199;28;20032;-75
2024/01/23 06:08:50;;;;;;;17.60;4.32;;;;;;;4.21;100.00;102089.25;5035190;28;20116;-76
2024/01/23 06:11:15;;;;;;;15.95;4.00;;;;;;;4.26;100.00;102100.25;5053047;28;20147;-76
2024/01/23 06:13:40;;;;;;;14.25;4.80;;;;;;;4.15;100.00;102089.84;5053055;28;20032;-78
2024/01/23 06:16:06;;;;;;;18.05;4.03;;;;;;;4.18;100.00;102091.38;5053232;28;20033;-76
2024/01/23 06:18:35;;;;;;;14.98;5.20;;;;;;;4.20;100.00;102089.41;5035078;28;20051;-77
2024/01/23 06:21:00;;;;;;;13.63;3.67;;;;;;;4.23;100.00;102099.72;5053127;28;20060;-77
2024/01/23 06:23:26;;;;;;;21.17;4.18;;;;;;;4.22;100.00;102096.22;5052970;28;20057;-77
2024/01/23 06:25:51;;;;;;;12.55;3.65;;;;;;;4.16;100.00;102101.25;5053015;28;20041;-77
2024/01/23 06:28:16;;;;;;;9.80;3.53;;;;;;;4.15;100.00;102096.94;5053046;28;20033;-78
2024/01/23 06:30:42;;;;;;;11.75;4.45;;;;;;;4.11;100.00;102120.22;5052847;28;20040;-77
2024/01/23 06:33:08;;;;;;;15.80;4.40;;;;;;;4.12;100.00;102119.22;5052666;28;20036;-76
2024/01/23 06:35:33;;;;;;;12.07;3.50;;;;;;;4.17;100.00;102126.75;5044390;28;20074;-76
2024/01/23 06:37:58;;;;;;;19.65;4.38;;;;;;;4.13;100.00;102135.94;5035060;28;20029;-78
2024/01/23 06:40:24;;;;;;;18.77;3.65;;;;;;;4.11;100.00;102124.66;5053944;28;20029;-78
2024/01/23 06:42:49;;;;;;;18.20;3.78;;;;;;;4.14;100.00;102132.31;5035076;28;20025;-76
2024/01/23 06:45:15;;;;;;;12.90;3.90;;;;;;;4.10;100.00;102121.19;5034572;28;20029;-77
2024/01/23 06:47:40;;;;;;;15.85;4.15;;;;;;;4.17;100.00;102140.81;5034405;28;20025;-76
2024/01/23 06:50:06;;;;;;;22.30;4.63;;;;;;;4.14;100.00;102145.56;5052371;28;20021;-77
2024/01/23 06:52:31;;;;;;;13.82;4.13;;;;;;;4.13;100.00;102138.59;5034362;28;20025;-75
2024/01/23 06:54:57;;;;;;;13.43;4.00;;;;;;;4.06;100.00;102126.91;5052430;28;20025;-75
2024/01/23 06:57:24;;;;;;;18.17;3.80;;;;;;;4.11;100.00;102141.38;5034420;28;20066;-75
2024/01/23 06:59:49;;;;;;;14.20;4.65;;;;;;;4.14;100.00;102146.41;5034403;28;20025;-78
2024/01/23 07:02:15;;;;;;;13.85;3.80;;;;;;;4.17;100.00;102142.63;5034471;28;20033;-77
2024/01/23 07:04:40;;;;;;;11.80;3.17;;;;;;;4.18;100.00;102139.00;5052491;28;20421;-77
2024/01/23 07:07:06;;;;;;;19.67;3.92;;;;;;;4.18;100.00;102141.66;5052081;28;20061;-77
2024/01/23 07:09:31;;;;;;;11.13;3.10;;;;;;;4.15;100.00;102140.13;5052019;28;20029;-77
2024/01/23 07:11:56;;;;;;;20.83;4.55;;;;;;;4.15;100.00;102147.22;5052280;28;20079;-74
2024/01/23 07:14:22;;;;;;;18.98;4.97;;;;;;;4.14;100.00;102142.91;5052088;28;20094;-74
2024/01/23 07:16:47;;;;;;;11.73;3.08;;;;;;;4.11;100.00;102151.13;5052077;28;20029;-75
2024/01/23 07:19:13;;;;;;;14.52;3.78;;;;;;;4.08;100.00;102141.66;5051798;28;20029;-76
2024/01/23 07:21:40;;;;;;;25.65;4.50;;;;;;;4.15;100.00;102163.94;5051991;28;20024;-78
2024/01/23 07:24:06;;;;;;;20.48;5.85;;;;;;;4.12;100.00;102160.75;5051933;28;20055;-73
2024/01/23 07:26:32;;;;;;;15.13;4.43;;;;;;;4.09;100.00;102161.03;5051956;28;20485;-74
2024/01/23 07:28:57;;;;;;;18.58;4.05;;;;;;;4.06;100.00;102171.91;5051872;28;20086;-75
2024/01/23 07:31:23;;;;;;;15.48;4.45;;;;;;;4.04;100.00;102164.91;5052179;28;20533;-74
2024/01/23 07:33:48;;;;;;;13.00;3.78;;;;;;;4.13;100.00;102170.34;5052289;28;20028;-75
2024/01/23 07:36:15;;;;;;;20.33;4.35;;;;;;;4.04;100.00;102179.94;5051792;28;20028;-75
2024/01/23 07:38:40;;;;;;;14.93;3.28;;;;;;;4.07;100.00;102195.56;5051745;28;20029;-74
2024/01/23 07:41:05;;;;;;;17.48;4.05;;;;;;;4.03;100.00;102196.78;5033882;28;20044;-74
2024/01/23 07:43:31;;;;;;;17.75;5.32;;;;;;;3.97;100.00;102192.06;5051920;28;20036;-78
2024/01/23 07:45:56;;;;;;;24.55;3.90;;;;;;;3.97;100.00;102200.84;5034197;28;20033;-76
2024/01/23 07:48:21;;;;;;;17.63;3.60;;;;;;;4.04;100.00;102203.75;5033804;28;20421;-75
2024/01/23 07:50:47;;;;;;;14.52;4.40;;;;;;;4.15;100.00;102211.59;5051600;28;20033;-75
2024/01/23 07:53:12;;;;;;;13.65;4.00;;;;;;;4.14;100.00;102207.28;5051561;28;20553;-75
2024/01/23 07:55:38;;;;;;;31.10;4.82;;;;;;;4.23;100.00;102208.25;5033582;28;20033;-75
2024/01/23 07:58:03;;;;;;;23.42;4.10;;;;;;;4.32;100.00;102207.41;5051634;28;20021;-76
2024/01/23 08:00:29;;;;;;;19.27;4.28;;;;;;;4.51;100.00;102219.81;5051782;28;20155;-76
2024/01/23 08:02:54;;;;;;;15.57;4.82;;;;;;;4.68;100.00;102213.81;5051445;28;20036;-77
2024/01/23 08:05:22;;;;;;;21.67;4.97;;;;;;;4.95;100.00;102221.03;5051467;28;20050;-80
2024/01/23 08:07:48;;;;;;;16.25;4.03;;;;;;;5.13;100.00;102206.03;5051430;28;20375;-76
2024/01/23 08:10:14;;;;;;;14.85;3.70;;;;;;;5.42;100.00;102228.94;5051349;28;20579;-78
2024/01/23 08:12:39;;;;;;;19.15;3.88;;;;;;;5.44;100.00;102233.13;5033599;28;20025;-76
2024/01/23 08:15:05;;;;;;;18.42;4.53;;;;;;;5.57;100.00;102235.47;5033392;28;20056;-76
2024/01/23 08:17:30;;;;;;;12.35;3.58;;;;;;;5.68;100.00;102240.56;5033305;28;20394;-75
2024/01/23 08:19:55;;;;;;;20.83;5.40;;;;;;;5.78;100.00;102251.09;5052474;28;20358;-75
2024/01/23 08:22:21;;;;;;;12.25;3.42;;;;;;;5.78;100.00;102259.06;5054795;28;20523;-76
2024/01/23 08:24:46;;;;;;;15.27;4.32;;;;;;;5.95;100.00;102265.44;5037124;28;20489;-76
2024/01/23 08:27:11;;;;;;;12.52;3.85;;;;;;;5.82;100.00;102274.59;5037040;28;20119;-75
2024/01/23 08:29:37;;;;;;;20.38;4.45;;;;;;;6.00;100.00;102276.47;5036889;28;20067;-75
2024/01/23 08:32:03;;;;;;;19.25;4.10;;;;;;;6.25;100.00;102283.72;5054713;28;20108;-75
2024/01/23 08:34:28;;;;;;;19.23;4.53;;;;;;;6.29;100.00;102285.06;5036869;28;20062;-74
2024/01/23 08:36:54;;;;;;;15.82;5.22;;;;;;;6.27;100.00;102295.03;5054523;28;20552;-74
2024/01/23 08:39:19;;;;;;;17.50;3.90;;;;;;;6.30;100.00;102302.69;5036699;28;20461;-73
2024/01/23 08:41:44;;;;;;;13.50;4.35;;;;;;;6.67;100.00;102301.75;5036643;28;20032;-77
2024/01/23 08:44:10;;;;;;;13.85;4.38;;;;;;;6.87;100.00;102313.84;5054530;28;20029;-76
2024/01/23 08:46:36;;;;;;;12.45;3.75;;;;;;;7.00;100.00;102324.13;5054565;28;20041;-76
2024/01/23 08:49:01;;;;;;;17.05;4.78;;;;;;;7.42;100.00;102311.78;5054554;28;20098;-76
2024/01/23 08:51:28;;;;;;;14.23;3.90;;;;;;;7.67;100.00;102319.91;5054281;28;20061;-76
2024/01/23 08:53:54;;;;;;;13.85;4.03;;;;;;;7.73;100.00;102320.09;5054280;28;20586;-76
2024/01/23 08:56:21;;;;;;;15.25;4.05;;;;;;;7.57;100.00;102320.03;5054387;28;20029;-76
2024/01/23 08:58:47;;;;;;;21.45;5.40;;;;;;;7.45;100.00;102313.28;5036368;28;20119;-77
2024/01/23 09:01:12;;;;;;;10.68;3.38;;;;;;;7.42;100.00;102316.25;5054386;28;20104;-77
2024/01/23 09:03:38;;;;;;;19.15;4.60;;;;;;;8.12;100.00;102332.09;5036341;28;20553;-76
2024/01/23 09:06:06;;;;;;;18.98;4.95;;;;;;;8.71;100.00;102320.44;5054198;28;20043;-76
2024/01/23 09:08:31;;;;;;;12.57;4.07;;;;;;;9.22;100.00;102321.09;5035746;28;20044;-75
2024/01/23 09:10:57;;;;;;;11.73;3.40;;;;;;;9.24;100.00;102313.75;5054086;28;20024;-77
2024/01/23 09:13:22;;;;;;;15.98;3.72;;;;;;;9.14;100.00;102308.59;5054045;28;20029;-77
2024/01/23 09:15:48;;;;;;;19.35;5.40;;;;;;;9.06;100.00;102313.13;5035991;28;20433;-76
2024/01/23 09:18:13;;;;;;;19.02;4.18;;;;;;;8.91;100.00;102318.28;5036051;28;20040;-76
2024/01/23 09:20:39;;;;;;;14.68;3.80;;;;;;;9.12;100.00;102317.78;5036173;28;20029;-77
2024/01/23 09:23:04;;;;;;;15.95;4.07;;;;;;;9.29;100.00;102324.78;5036043;28;20036;-78
2024/01/23 09:25:29;;;;;;;11.55;4.25;;;;;;;9.35;100.00;102318.75;5035990;28;20029;-76
2024/01/23 09:27:56;;;;;;;11.43;3.45;;;;;;;8.77;100.00;102308.28;5053839;28;20111;-77
2024/01/23 09:30:21;;;;;;;14.30;3.90;;;;;;;8.26;100.00;102315.47;5053800;28;20397;-76
2024/01/23 09:32:46;;;;;;;9.88;3.15;;;;;;;7.94;100.00;102313.53;5053912;28;20024;-76
2024/01/23 09:35:15;;;;;;;12.32;4.13;;;;;;;7.73;100.00;102308.63;5035848;28;20036;-77
2024/01/23 09:37:40;;;;;;;17.92;4.38;;;;;;;7.89;100.00;102311.38;5053722;28;20052;-77
2024/01/23 09:40:08;;;;;;;15.85;5.10;;;;;;;8.15;100.00;102327.28;5035791;28;20130;-76
2024/01/23 09:42:38;;;;;;;17.13;5.32;;;;;;;8.34;100.00;102316.34;5035641;28;20146;-77
2024/01/23 09:45:09;;;;;;;18.20;4.70;;;;;;;8.63;100.00;102304.41;5053563;28;20083;-77
2024/01/23 09:47:35;;;;;;;17.08;5.35;;;;;;;9.07;100.00;102314.78;5035724;28;20028;-77
2024/01/23 09:50:02;;;;;;;14.43;3.88;;;;;;;9.50;100.00;102317.03;5053480;28;20147;-77
2024/01/23 09:52:29;;;;;;;15.15;4.07;;;;;;;9.91;100.00;102316.94;5053400;28;20097;-76
2024/01/23 09:54:55;;;;;;;16.42;5.38;;;;;;;10.02;100.00;102326.38;5035643;28;20436;-76
2024/01/23 09:57:20;;;;;;;14.50;4.53;;;;;;;10.20;100.00;102321.63;5053372;28;20040;-77
2024/01/23 09:59:48;;;;;;;14.90;4.32;;;;;;;10.39;100.00;102323.88;5053502;28;20390;-75
2024/01/23 10:02:14;;;;;;;17.30;4.13;;;;;;;10.27;100.00;102327.16;5053367;28;20032;-77
2024/01/23 10:04:41;;;;;;;13.48;3.80;;;;;;;10.17;100.00;102333.50;5053352;28;20394;-76
2024/01/23 10:07:09;;;;;;;16.13;4.38;;;;;;;10.26;100.00;102330.81;5035284;28;20032;-76
2024/01/23 10:09:36;;;;;;;18.88;4.70;;;;;;;9.97;100.00;102339.44;5045248;28;20390;-76
2024/01/23 10:12:02;;;;;;;12.93;3.90;;;;;;;9.54;100.00;102342.41;5035278;28;20116;-76
2024/01/23 10:14:27;;;;;;;17.00;5.40;;;;;;;9.50;100.00;102350.91;5053463;28;20104;-77
2024/01/23 10:16:53;;;;;;;19.23;4.95;;;;;;;9.51;100.00;102342.72;5052739;28;20489;-76
2024/01/23 10:19:19;;;;;;;18.27;4.82;;;;;;;9.35;100.00;102326.75;5035054;28;20033;-76
2024/01/23 10:21:46;;;;;;;18.30;4.55;;;;;;;9.07;100.00;102334.28;5052825;28;20047;-76
2024/01/23 10:24:11;;;;;;;17.35;4.75;;;;;;;9.05;100.00;102341.63;5053054;28;20060;-77
2024/01/23 10:26:37;;;;;;;16.20;4.50;;;;;;;9.61;100.00;102314.03;5034933;28;20174;-77
2024/01/23 10:29:02;;;;;;;15.95;4.78;;;;;;;10.06;100.00;102319.69;5052862;28;20040;-77
2024/01/23 10:31:28;;;;;;;17.55;4.40;;;;;;;10.43;100.00;102327.06;5052978;28;20388;-77
2024/01/23 10:33:53;;;;;;;23.13;4.88;;;;;;;10.30;100.00;102327.63;5052938;28;20025;-74
2024/01/23 10:36:20;;;;;;;16.10;4.50;;;;;;;10.44;100.00;102328.72;5052553;28;20037;-74
2024/01/23 10:38:50;;;;;;;19.70;4.78;;;;;;;10.72;100.00;102329.03;5034668;28;20149;-77
2024/01/23 10:41:17;;;;;;;16.27;4.75;;;;;;;10.57;100.00;102342.34;5034751;28;20478;-76
2024/01/23 10:43:45;;;;;;;16.02;4.68;;;;;;;10.16;100.00;102339.03;5033945;28;20033;-75
2024/01/23 10:46:11;;;;;;;16.45;4.80;;;;;;;10.16;100.00;102331.84;5052785;28;20170;-75
2024/01/23 10:48:36;;;;;;;23.20;5.35;;;;;;;10.21;100.00;102334.84;5052454;28;20491;-74
2024/01/23 10:51:19;;;;;;;12.27;3.78;;;;;;;9.87;100.00;102326.28;5034538;28;20040;-75
2024/01/23 10:53:57;;;;;;;18.73;5.32;;;;;;;9.65;100.00;102338.53;5052596;28;20025;-75
2024/01/23 10:56:41;;;;;;;17.42;3.85;;;;;;;9.67;100.00;102322.34;5034618;28;20040;-75
2024/01/23 10:59:21;;;;;;;12.15;4.03;;;;;;;9.50;100.00;102333.06;5052531;28;20111;-75
2024/01/23 11:01:50;;;;;;;14.38;4.05;;;;;;;9.46;100.00;102317.56;5045984;28;20033;-76
2024/01/23 11:04:15;;;;;;;18.33;4.32;;;;;;;9.43;100.00;102301.88;5034483;28;20480;-80
2024/01/23 11:07:36;;;;;;;19.13;4.35;;;;;;;9.45;100.00;102321.22;5034465;28;20032;-77
2024/01/23 11:10:31;;;;;;;15.15;3.88;;;;;;;9.14;100.00;102315.75;5046364;28;20048;-77
2024/01/23 11:13:03;;;;;;;20.30;4.72;;;;;;;8.82;100.00;102297.94;5034458;28;20032;-76